createdAt,value
2017-08-04T00:00:31.048Z,1002.4
2017-08-04T00:01:32.445Z,1002.4
2017-08-04T00:03:14.822Z,1002.4
2017-08-04T00:04:16.199Z,1002.5
2017-08-04T00:05:17.590Z,1002.4
2017-08-04T00:06:18.969Z,1002.4
2017-08-04T00:07:20.351Z,1002.5
2017-08-04T00:08:21.732Z,1002.4
2017-08-04T00:09:23.118Z,1002.4
2017-08-04T00:10:24.509Z,1002.5
2017-08-04T00:11:25.883Z,1002.5
2017-08-04T00:12:27.260Z,1002.5
2017-08-04T00:13:28.639Z,1002.5
2017-08-04T00:15:11.006Z,1002.5
2017-08-04T00:16:12.392Z,1002.5
2017-08-04T00:17:13.771Z,1002.5
2017-08-04T00:18:15.144Z,1002.4
2017-08-04T00:19:16.528Z,1002.5
2017-08-04T00:20:17.909Z,1002.4
2017-08-04T00:21:19.291Z,1002.4
2017-08-04T00:22:20.672Z,1002.4
2017-08-04T00:23:22.051Z,1002.4
2017-08-04T00:24:23.440Z,1002.4
2017-08-04T00:26:05.825Z,1002.4
2017-08-04T00:27:07.214Z,1002.3
2017-08-04T00:28:08.593Z,1002.3
2017-08-04T00:29:09.969Z,1002.4
2017-08-04T00:30:11.356Z,1002.4
2017-08-04T00:31:12.737Z,1002.4
2017-08-04T00:32:14.127Z,1002.4
2017-08-04T00:33:15.506Z,1002.4
2017-08-04T00:34:16.887Z,1002.3
2017-08-04T00:35:18.341Z,1002.3
2017-08-04T00:36:19.786Z,1002.3
2017-08-04T00:37:21.242Z,1002.3
2017-08-04T00:38:22.715Z,1002.3
2017-08-04T00:39:24.101Z,1002.3
2017-08-04T00:40:25.554Z,1002.3
2017-08-04T00:41:26.938Z,1002.3
2017-08-04T00:42:28.326Z,1002.3
2017-08-04T00:43:29.706Z,1002.3
2017-08-04T00:45:12.087Z,1002.4
2017-08-04T00:46:13.479Z,1002.3
2017-08-04T00:47:14.860Z,1002.3
2017-08-04T00:48:16.237Z,1002.4
2017-08-04T00:49:17.618Z,1002.4
2017-08-04T00:50:19.002Z,1002.3
2017-08-04T00:51:20.381Z,1002.3
2017-08-04T00:53:02.755Z,1002.3
2017-08-04T00:54:04.138Z,1002.3
2017-08-04T00:55:05.519Z,1002.3
2017-08-04T00:56:06.901Z,1002.3
2017-08-04T00:57:08.291Z,1002.3
2017-08-04T00:58:09.675Z,1002.3
2017-08-04T00:59:11.053Z,1002.3
2017-08-04T01:00:12.438Z,1002.3
2017-08-04T01:01:13.829Z,1002.3
2017-08-04T01:02:15.208Z,1002.2
2017-08-04T01:03:16.583Z,1002.2
2017-08-04T01:04:17.963Z,1002.3
2017-08-04T01:05:19.342Z,1002.2
2017-08-04T01:06:20.721Z,1002.2
2017-08-04T01:07:22.105Z,1002.2
2017-08-04T01:08:23.484Z,1002.2
2017-08-04T01:09:24.865Z,1002.2
2017-08-04T01:10:26.242Z,1002.2
2017-08-04T01:11:27.625Z,1002.2
2017-08-04T01:12:29.006Z,1002.3
2017-08-04T01:13:30.391Z,1002.2
2017-08-04T01:14:31.790Z,1002.2
2017-08-04T01:15:33.168Z,1002.3
2017-08-04T01:16:34.546Z,1002.3
2017-08-04T01:17:35.927Z,1002.3
2017-08-04T01:18:37.304Z,1002.3
2017-08-04T01:19:38.691Z,1002.3
2017-08-04T01:20:40.073Z,1002.3
2017-08-04T01:21:41.456Z,1002.3
2017-08-04T01:22:42.839Z,1002.3
2017-08-04T01:23:44.218Z,1002.3
2017-08-04T01:24:45.600Z,1002.4
2017-08-04T01:25:46.984Z,1002.3
2017-08-04T01:26:48.382Z,1002.3
2017-08-04T01:27:49.757Z,1002.3
2017-08-04T01:28:51.142Z,1002.3
2017-08-04T01:30:33.522Z,1002.3
2017-08-04T01:31:34.901Z,1002.3
2017-08-04T01:32:36.276Z,1002.3
2017-08-04T01:33:37.662Z,1002.3
2017-08-04T01:34:39.044Z,1002.3
2017-08-04T01:35:40.426Z,1002.3
2017-08-04T01:36:41.818Z,1002.4
2017-08-04T01:37:43.203Z,1002.4
2017-08-04T01:38:44.604Z,1002.4
2017-08-04T01:39:45.979Z,1002.3
2017-08-04T01:40:47.343Z,1002.3
2017-08-04T01:41:48.725Z,1002.3
2017-08-04T01:42:50.110Z,1002.3
2017-08-04T01:43:51.487Z,1002.3
2017-08-04T01:44:52.919Z,1002.3
2017-08-04T01:45:55.041Z,1002.3
2017-08-04T01:47:37.427Z,1002.3
2017-08-04T01:48:38.800Z,1002.3
2017-08-04T01:49:40.179Z,1002.3
2017-08-04T01:50:41.558Z,1002.3
2017-08-04T01:51:43.220Z,1002.4
2017-08-04T01:52:44.606Z,1002.3
2017-08-04T01:54:26.972Z,1002.3
2017-08-04T01:55:28.354Z,1002.3
2017-08-04T01:56:29.740Z,1002.3
2017-08-04T01:57:31.116Z,1002.3
2017-08-04T01:58:32.491Z,1002.3
2017-08-04T02:00:14.875Z,1002.3
2017-08-04T02:01:56.234Z,1002.2
2017-08-04T02:02:57.613Z,1002.2
2017-08-04T02:04:20.615Z,1002.2
2017-08-04T02:05:21.989Z,1002.2
2017-08-04T02:06:23.386Z,1002.2
2017-08-04T02:07:24.746Z,1002.2
2017-08-04T02:08:26.133Z,1002.2
2017-08-04T02:09:27.511Z,1002.2
2017-08-04T02:10:28.900Z,1002.2
2017-08-04T02:11:30.288Z,1002.2
2017-08-04T02:12:31.674Z,1002.2
2017-08-04T02:13:33.113Z,1002.2
2017-08-04T02:14:34.459Z,1002.3
2017-08-04T02:15:35.877Z,1002.3
2017-08-04T02:16:37.253Z,1002.3
2017-08-04T02:17:38.646Z,1002.2
2017-08-04T02:18:40.034Z,1002.3
2017-08-04T02:19:41.460Z,1002.2
2017-08-04T02:20:42.856Z,1002.3
2017-08-04T02:21:44.230Z,1002.3
2017-08-04T02:22:45.661Z,1002.3
2017-08-04T02:23:47.098Z,1002.3
2017-08-04T02:24:48.527Z,1002.4
2017-08-04T02:25:49.915Z,1002.4
2017-08-04T02:26:51.289Z,1002.4
2017-08-04T02:27:53.273Z,1002.3
2017-08-04T02:28:54.713Z,1002.3
2017-08-04T02:29:56.128Z,1002.4
2017-08-04T02:30:57.522Z,1002.4
2017-08-04T02:31:58.914Z,1002.4
2017-08-04T02:33:00.297Z,1002.4
2017-08-04T02:34:01.778Z,1002.4
2017-08-04T02:35:44.183Z,1002.5
2017-08-04T02:36:45.544Z,1002.4
2017-08-04T02:37:46.929Z,1002.4
2017-08-04T02:38:48.305Z,1002.4
2017-08-04T02:39:49.704Z,1002.4
2017-08-04T02:40:51.075Z,1002.4
2017-08-04T02:41:52.460Z,1002.4
2017-08-04T02:42:53.882Z,1002.5
2017-08-04T02:43:55.248Z,1002.4
2017-08-04T02:44:56.632Z,1002.4
2017-08-04T02:45:58.034Z,1002.3
2017-08-04T02:46:59.398Z,1002.3
2017-08-04T02:48:41.787Z,1002.3
2017-08-04T02:49:43.181Z,1002.3
2017-08-04T02:50:44.551Z,1002.3
2017-08-04T02:51:45.927Z,1002.3
2017-08-04T02:52:47.307Z,1002.3
2017-08-04T02:53:48.708Z,1002.3
2017-08-04T02:54:50.097Z,1002.3
2017-08-04T02:55:51.469Z,1002.4
2017-08-04T02:56:52.856Z,1002.4
2017-08-04T02:57:54.225Z,1002.3
2017-08-04T02:58:55.631Z,1002.4
2017-08-04T02:59:56.995Z,1002.3
2017-08-04T03:00:58.381Z,1002.3
2017-08-04T03:01:59.758Z,1002.4
2017-08-04T03:03:01.136Z,1002.3
2017-08-04T03:04:02.580Z,1002.3
2017-08-04T03:05:04.016Z,1002.4
2017-08-04T03:06:05.418Z,1002.3
2017-08-04T03:07:06.811Z,1002.3
2017-08-04T03:08:08.213Z,1002.3
2017-08-04T03:09:09.588Z,1002.3
2017-08-04T03:10:10.968Z,1002.3
2017-08-04T03:11:12.349Z,1002.3
2017-08-04T03:12:13.810Z,1002.3
2017-08-04T03:13:15.199Z,1002.3
2017-08-04T03:14:16.576Z,1002.2
2017-08-04T03:15:17.982Z,1002.3
2017-08-04T03:16:19.451Z,1002.2
2017-08-04T03:17:20.832Z,1002.3
2017-08-04T03:18:22.214Z,1002.3
2017-08-04T03:20:03.619Z,1002.3
2017-08-04T03:21:04.971Z,1002.3
2017-08-04T03:22:06.347Z,1002.3
2017-08-04T03:23:07.732Z,1002.3
2017-08-04T03:24:09.124Z,1002.2
2017-08-04T03:25:10.534Z,1002.3
2017-08-04T03:26:11.886Z,1002.3
2017-08-04T03:27:13.265Z,1002.3
2017-08-04T03:28:14.648Z,1002.3
2017-08-04T03:29:16.044Z,1002.3
2017-08-04T03:30:17.482Z,1002.3
2017-08-04T03:31:18.916Z,1002.4
2017-08-04T03:32:20.316Z,1002.3
2017-08-04T03:33:21.788Z,1002.3
2017-08-04T03:34:23.219Z,1002.3
2017-08-04T03:35:24.603Z,1002.3
2017-08-04T03:36:25.987Z,1002.3
2017-08-04T03:37:27.370Z,1002.3
2017-08-04T03:38:28.828Z,1002.3
2017-08-04T03:39:30.215Z,1002.3
2017-08-04T03:40:31.610Z,1002.3
2017-08-04T03:41:33.047Z,1002.3
2017-08-04T03:42:34.432Z,1002.2
2017-08-04T03:44:16.801Z,1002.3
2017-08-04T03:45:18.180Z,1002.3
2017-08-04T03:46:19.558Z,1002.2
2017-08-04T03:47:20.940Z,1002.2
2017-08-04T03:48:22.313Z,1002.2
2017-08-04T03:49:23.729Z,1002.2
2017-08-04T03:50:25.156Z,1002.2
2017-08-04T03:51:26.536Z,1002.3
2017-08-04T03:52:27.997Z,1002.3
2017-08-04T03:53:29.370Z,1002.3
2017-08-04T03:54:30.748Z,1002.2
2017-08-04T03:55:32.134Z,1002.2
2017-08-04T03:56:33.592Z,1002.2
2017-08-04T03:57:34.981Z,1002.2
2017-08-04T03:58:36.411Z,1002.2
2017-08-04T03:59:37.825Z,1002.2
2017-08-04T04:00:39.290Z,1002.3
2017-08-04T04:01:40.672Z,1002.2
2017-08-04T04:02:42.087Z,1002.2
2017-08-04T04:03:43.521Z,1002.2
2017-08-04T04:04:44.973Z,1002.2
2017-08-04T04:05:46.413Z,1002.3
2017-08-04T04:06:47.824Z,1002.3
2017-08-04T04:07:49.214Z,1002.2
2017-08-04T04:08:50.670Z,1002.3
2017-08-04T04:09:52.123Z,1002.2
2017-08-04T04:10:53.566Z,1002.3
2017-08-04T04:11:54.957Z,1002.3
2017-08-04T04:12:56.354Z,1002.2
2017-08-04T04:13:57.734Z,1002.3
2017-08-04T04:14:59.136Z,1002.3
2017-08-04T04:16:00.555Z,1002.3
2017-08-04T04:17:01.975Z,1002.3
2017-08-04T04:18:03.427Z,1002.3
2017-08-04T04:19:04.803Z,1002.4
2017-08-04T04:20:06.198Z,1002.4
2017-08-04T04:21:07.619Z,1002.4
2017-08-04T04:22:09.041Z,1002.5
2017-08-04T04:23:10.461Z,1002.4
2017-08-04T04:24:52.840Z,1002.4
2017-08-04T04:25:54.223Z,1002.4
2017-08-04T04:26:55.604Z,1002.4
2017-08-04T04:27:56.995Z,1002.4
2017-08-04T04:28:58.386Z,1002.4
2017-08-04T04:29:59.784Z,1002.4
2017-08-04T04:31:01.167Z,1002.4
2017-08-04T04:32:02.551Z,1002.5
2017-08-04T04:33:03.934Z,1002.5
2017-08-04T04:34:05.315Z,1002.4
2017-08-04T04:35:06.702Z,1002.5
2017-08-04T04:36:08.093Z,1002.4
2017-08-04T04:37:09.474Z,1002.4
2017-08-04T04:38:10.858Z,1002.5
2017-08-04T04:39:12.245Z,1002.5
2017-08-04T04:40:13.666Z,1002.5
2017-08-04T04:41:15.047Z,1002.5
2017-08-04T04:42:16.435Z,1002.4
2017-08-04T04:43:17.817Z,1002.4
2017-08-04T04:44:19.201Z,1002.4
2017-08-04T04:45:20.590Z,1002.5
2017-08-04T04:46:21.983Z,1002.4
2017-08-04T04:47:23.406Z,1002.4
2017-08-04T04:48:24.779Z,1002.4
2017-08-04T04:49:26.171Z,1002.4
2017-08-04T04:50:27.552Z,1002.5
2017-08-04T04:51:28.943Z,1002.4
2017-08-04T04:52:30.337Z,1002.4
2017-08-04T04:53:31.721Z,1002.4
2017-08-04T04:54:33.105Z,1002.4
2017-08-04T04:55:34.486Z,1002.4
2017-08-04T04:56:35.875Z,1002.3
2017-08-04T04:57:37.263Z,1002.2
2017-08-04T04:58:38.660Z,1002.2
2017-08-04T04:59:40.062Z,1002.2
2017-08-04T05:00:41.439Z,1002.1
2017-08-04T05:01:42.831Z,1002.1
2017-08-04T05:02:44.220Z,1002.2
2017-08-04T05:03:46.194Z,1002.2
2017-08-04T05:04:48.356Z,1002.2
2017-08-04T05:05:50.490Z,1002.2
2017-08-04T05:06:52.130Z,1002.2
2017-08-04T05:07:53.946Z,1002.1
2017-08-04T05:08:56.211Z,1002.1
2017-08-04T05:09:57.625Z,1002.1
2017-08-04T05:10:59.061Z,1002.1
2017-08-04T05:12:00.449Z,1002.1
2017-08-04T05:13:01.832Z,1002.2
2017-08-04T05:14:03.215Z,1002.2
2017-08-04T05:15:04.602Z,1002.2
2017-08-04T05:16:05.984Z,1002.3
2017-08-04T05:17:07.372Z,1002.3
2017-08-04T05:18:08.759Z,1002.4
2017-08-04T05:19:10.144Z,1002.4
2017-08-04T05:20:11.814Z,1002.4
2017-08-04T05:21:14.026Z,1002.4
2017-08-04T05:22:16.100Z,1002.4
2017-08-04T05:23:18.491Z,1002.4
2017-08-04T05:24:19.891Z,1002.5
2017-08-04T05:25:21.284Z,1002.5
2017-08-04T05:26:22.668Z,1002.5
2017-08-04T05:27:24.070Z,1002.5
2017-08-04T05:28:25.458Z,1002.4
2017-08-04T05:29:26.847Z,1002.5
2017-08-04T05:30:28.419Z,1002.5
2017-08-04T05:31:29.829Z,1002.5
2017-08-04T05:32:31.256Z,1002.5
2017-08-04T05:33:32.712Z,1002.5
2017-08-04T05:34:34.153Z,1002.4
2017-08-04T05:35:35.780Z,1002.4
2017-08-04T05:37:18.164Z,1002.4
2017-08-04T05:38:19.545Z,1002.4
2017-08-04T05:39:20.927Z,1002.4
2017-08-04T05:40:22.312Z,1002.5
2017-08-04T05:41:23.698Z,1002.4
2017-08-04T05:42:25.096Z,1002.4
2017-08-04T05:43:26.488Z,1002.5
2017-08-04T05:44:27.876Z,1002.4
2017-08-04T05:45:29.266Z,1002.5
2017-08-04T05:46:30.651Z,1002.6
2017-08-04T05:47:32.732Z,1002.6
2017-08-04T05:48:34.595Z,1002.6
2017-08-04T05:49:36.394Z,1002.6
2017-08-04T05:50:38.693Z,1002.7
2017-08-04T05:51:40.194Z,1002.6
2017-08-04T05:52:42.440Z,1002.6
2017-08-04T05:53:44.776Z,1002.6
2017-08-04T05:54:46.226Z,1002.6
2017-08-04T05:55:47.615Z,1002.6
2017-08-04T05:56:49.001Z,1002.6
2017-08-04T05:57:50.416Z,1002.6
2017-08-04T05:58:52.692Z,1002.6
2017-08-04T05:59:54.462Z,1002.7
2017-08-04T06:00:55.856Z,1002.6
2017-08-04T06:01:57.292Z,1002.7
2017-08-04T06:02:58.840Z,1002.6
2017-08-04T06:04:00.530Z,1002.6
2017-08-04T06:05:01.960Z,1002.6
2017-08-04T06:06:03.328Z,1002.6
2017-08-04T06:07:04.780Z,1002.7
2017-08-04T06:08:06.329Z,1002.7
2017-08-04T06:09:07.714Z,1002.7
2017-08-04T06:10:09.180Z,1002.8
2017-08-04T06:11:10.592Z,1002.8
2017-08-04T06:12:12.016Z,1002.8
2017-08-04T06:13:13.411Z,1002.8
2017-08-04T06:14:14.803Z,1002.8
2017-08-04T06:15:57.187Z,1002.8
2017-08-04T06:16:58.963Z,1002.8
2017-08-04T06:18:00.311Z,1002.8
2017-08-04T06:19:01.695Z,1002.8
2017-08-04T06:20:03.468Z,1002.7
2017-08-04T06:21:04.801Z,1002.7
2017-08-04T06:22:06.208Z,1002.8
2017-08-04T06:23:07.592Z,1002.8
2017-08-04T06:24:08.998Z,1002.8
2017-08-04T06:25:10.385Z,1002.9
2017-08-04T06:26:11.772Z,1002.8
2017-08-04T06:27:13.160Z,1002.9
2017-08-04T06:28:14.781Z,1002.8
2017-08-04T06:29:16.270Z,1002.9
2017-08-04T06:30:18.451Z,1003.0
2017-08-04T06:31:20.127Z,1002.9
2017-08-04T06:32:21.515Z,1002.8
2017-08-04T06:33:22.934Z,1002.6
2017-08-04T06:34:24.565Z,1002.7
2017-08-04T06:35:25.980Z,1002.7
2017-08-04T06:36:27.446Z,1002.8
2017-08-04T06:37:29.133Z,1002.9
2017-08-04T06:38:30.841Z,1002.7
2017-08-04T06:39:32.305Z,1002.9
2017-08-04T06:41:14.684Z,1002.9
2017-08-04T06:42:16.068Z,1002.8
2017-08-04T06:43:17.453Z,1002.8
2017-08-04T06:44:18.843Z,1002.8
2017-08-04T06:45:20.236Z,1002.7
2017-08-04T06:46:21.620Z,1002.9
2017-08-04T06:47:23.008Z,1002.7
2017-08-04T06:48:24.395Z,1002.8
2017-08-04T06:49:25.797Z,1002.8
2017-08-04T06:50:27.169Z,1002.9
2017-08-04T06:51:28.587Z,1002.9
2017-08-04T06:52:29.957Z,1002.9
2017-08-04T06:53:31.343Z,1003.0
2017-08-04T06:54:32.741Z,1003.1
2017-08-04T06:55:34.123Z,1003.1
2017-08-04T06:56:35.511Z,1003.2
2017-08-04T06:57:36.898Z,1003.1
2017-08-04T06:58:38.286Z,1003.1
2017-08-04T06:59:39.679Z,1003.1
2017-08-04T07:00:41.071Z,1003.2
2017-08-04T07:01:42.466Z,1003.2
2017-08-04T07:02:43.852Z,1003.3
2017-08-04T07:03:45.241Z,1003.5
2017-08-04T07:04:46.629Z,1003.2
2017-08-04T07:05:48.020Z,1003.3
2017-08-04T07:06:49.407Z,1003.2
2017-08-04T07:07:51.146Z,1003.6
2017-08-04T07:08:52.537Z,1003.2
2017-08-04T07:09:53.939Z,1003.4
2017-08-04T07:10:55.331Z,1003.5
2017-08-04T07:11:56.714Z,1003.9
2017-08-04T07:12:58.105Z,1003.2
2017-08-04T07:13:59.510Z,1003.3
2017-08-04T07:15:00.900Z,1003.9
2017-08-04T07:16:02.291Z,1004.1
2017-08-04T07:17:03.719Z,1004.3
2017-08-04T07:18:05.101Z,1003.3
2017-08-04T07:19:06.497Z,1003.1
2017-08-04T07:20:08.339Z,1003.3
2017-08-04T07:21:09.707Z,1003.1
2017-08-04T07:22:11.123Z,1003.9
2017-08-04T07:23:12.516Z,1003.8
2017-08-04T07:24:13.985Z,1003.3
2017-08-04T07:25:15.420Z,1003.3
2017-08-04T07:26:16.832Z,1003.3
2017-08-04T07:27:18.223Z,1003.6
2017-08-04T07:28:19.629Z,1003.2
2017-08-04T07:29:21.016Z,1003.1
2017-08-04T07:30:22.416Z,1003.1
2017-08-04T07:31:23.916Z,1003.3
2017-08-04T07:32:25.298Z,1003.1
2017-08-04T07:33:26.758Z,1003.0
2017-08-04T07:34:28.143Z,1003.5
2017-08-04T07:35:29.540Z,1003.7
2017-08-04T07:36:30.930Z,1003.4
2017-08-04T07:37:32.324Z,1003.5
2017-08-04T07:38:33.780Z,1003.3
2017-08-04T07:39:35.167Z,1003.4
2017-08-04T07:40:36.555Z,1003.4
2017-08-04T07:41:37.950Z,1003.4
2017-08-04T07:42:39.368Z,1003.4
2017-08-04T07:43:40.767Z,1003.5
2017-08-04T07:44:42.184Z,1003.6
2017-08-04T07:45:43.638Z,1003.7
2017-08-04T07:46:45.038Z,1003.4
2017-08-04T07:47:46.429Z,1003.5
2017-08-04T07:48:47.840Z,1003.5
2017-08-04T07:49:49.252Z,1003.5
2017-08-04T07:50:50.644Z,1003.5
2017-08-04T07:51:52.038Z,1003.5
2017-08-04T07:52:53.430Z,1003.5
2017-08-04T07:53:54.818Z,1003.4
2017-08-04T07:54:56.216Z,1003.3
2017-08-04T07:55:57.697Z,1003.5
2017-08-04T07:57:40.137Z,1003.5
2017-08-04T07:58:41.529Z,1003.5
2017-08-04T07:59:42.917Z,1003.6
2017-08-04T08:00:44.338Z,1003.6
2017-08-04T08:01:45.723Z,1003.5
2017-08-04T08:02:47.122Z,1003.4
2017-08-04T08:03:48.514Z,1003.4
2017-08-04T08:04:49.905Z,1003.3
2017-08-04T08:05:51.295Z,1003.3
2017-08-04T08:06:52.691Z,1003.4
2017-08-04T08:07:54.112Z,1003.4
2017-08-04T08:08:55.508Z,1003.5
2017-08-04T08:09:56.894Z,1003.6
2017-08-04T08:10:58.297Z,1003.7
2017-08-04T08:11:59.686Z,1003.6
2017-08-04T08:13:01.075Z,1003.7
2017-08-04T08:14:43.458Z,1003.7
2017-08-04T08:15:44.877Z,1003.7
2017-08-04T08:16:46.247Z,1003.6
2017-08-04T08:17:47.636Z,1003.7
2017-08-04T08:18:49.033Z,1003.6
2017-08-04T08:19:50.430Z,1003.6
2017-08-04T08:20:51.825Z,1003.6
2017-08-04T08:21:53.222Z,1003.6
2017-08-04T08:22:54.610Z,1003.6
2017-08-04T08:23:56.010Z,1003.5
2017-08-04T08:24:57.406Z,1003.5
2017-08-04T08:26:39.918Z,1003.4
2017-08-04T08:27:41.368Z,1003.5
2017-08-04T08:28:42.800Z,1003.5
2017-08-04T08:29:44.173Z,1003.5
2017-08-04T08:30:45.659Z,1003.5
2017-08-04T08:31:47.058Z,1003.5
2017-08-04T08:32:48.452Z,1003.5
2017-08-04T08:33:49.846Z,1003.6
2017-08-04T08:34:51.517Z,1003.4
2017-08-04T08:35:53.175Z,1003.5
2017-08-04T08:36:54.798Z,1003.5
2017-08-04T08:37:56.228Z,1003.4
2017-08-04T08:38:57.617Z,1003.7
2017-08-04T08:39:59.013Z,1003.6
2017-08-04T08:41:00.410Z,1003.6
2017-08-04T08:42:01.801Z,1003.5
2017-08-04T08:43:04.455Z,1003.5
2017-08-04T08:44:05.950Z,1003.6
2017-08-04T08:45:07.369Z,1003.6
2017-08-04T08:46:08.819Z,1003.5
2017-08-04T08:47:10.835Z,1003.8
2017-08-04T08:48:12.230Z,1003.7
2017-08-04T08:49:14.309Z,1003.6
2017-08-04T08:50:15.766Z,1003.9
2017-08-04T08:51:17.227Z,1003.9
2017-08-04T08:52:18.624Z,1003.8
2017-08-04T08:53:20.042Z,1003.7
2017-08-04T08:54:21.437Z,1003.7
2017-08-04T08:55:22.832Z,1003.8
2017-08-04T08:56:24.326Z,1003.8
2017-08-04T08:57:25.732Z,1004.5
2017-08-04T08:58:27.125Z,1004.2
2017-08-04T08:59:28.570Z,1003.9
2017-08-04T09:00:30.020Z,1003.6
2017-08-04T09:01:31.464Z,1003.6
2017-08-04T09:02:32.859Z,1003.5
2017-08-04T09:03:34.293Z,1003.7
2017-08-04T09:04:35.691Z,1003.8
2017-08-04T09:05:37.089Z,1003.5
2017-08-04T09:06:38.499Z,1003.8
2017-08-04T09:07:39.909Z,1003.9
2017-08-04T09:08:41.310Z,1003.7
2017-08-04T09:09:42.748Z,1003.9
2017-08-04T09:10:44.459Z,1003.8
2017-08-04T09:11:45.903Z,1004.0
2017-08-04T09:12:47.724Z,1005.7
2017-08-04T09:13:49.368Z,1004.1
2017-08-04T09:14:50.752Z,1003.6
2017-08-04T09:15:52.156Z,1003.6
2017-08-04T09:16:53.583Z,1003.7
2017-08-04T09:17:55.078Z,1003.7
2017-08-04T09:18:57.224Z,1003.6
2017-08-04T09:19:59.481Z,1003.7
2017-08-04T09:21:01.481Z,1004.2
2017-08-04T09:22:02.906Z,1003.6
2017-08-04T09:23:04.461Z,1003.6
2017-08-04T09:24:05.870Z,1003.6
2017-08-04T09:25:07.268Z,1003.7
2017-08-04T09:26:08.702Z,1003.7
2017-08-04T09:27:10.111Z,1003.7
2017-08-04T09:28:11.504Z,1004.3
2017-08-04T09:29:12.931Z,1003.7
2017-08-04T09:30:14.465Z,1003.7
2017-08-04T09:31:15.869Z,1003.9
2017-08-04T09:32:17.311Z,1004.4
2017-08-04T09:33:18.738Z,1004.0
2017-08-04T09:34:20.215Z,1004.0
2017-08-04T09:35:21.629Z,1003.9
2017-08-04T09:36:23.059Z,1003.8
2017-08-04T09:37:24.473Z,1004.0
2017-08-04T09:38:25.868Z,1003.5
2017-08-04T09:39:27.273Z,1003.9
2017-08-04T09:40:28.713Z,1003.9
2017-08-04T09:42:09.681Z,1004.0
2017-08-04T09:43:11.468Z,1003.9
2017-08-04T09:44:13.431Z,1004.0
2017-08-04T09:45:14.843Z,1003.9
2017-08-04T09:46:16.243Z,1004.1
2017-08-04T09:47:17.643Z,1003.9
2017-08-04T09:48:19.039Z,1003.5
2017-08-04T09:49:20.447Z,1003.8
2017-08-04T09:50:21.844Z,1004.0
2017-08-04T09:51:23.243Z,1003.9
2017-08-04T09:52:24.679Z,1003.9
2017-08-04T09:53:26.081Z,1003.8
2017-08-04T09:54:27.483Z,1004.0
2017-08-04T09:55:28.880Z,1004.1
2017-08-04T09:56:30.285Z,1003.9
2017-08-04T09:57:31.682Z,1004.3
2017-08-04T09:58:33.091Z,1003.6
2017-08-04T09:59:34.492Z,1003.7
2017-08-04T10:00:35.892Z,1003.8
2017-08-04T10:01:37.295Z,1003.7
2017-08-04T10:02:38.697Z,1003.7
2017-08-04T10:03:40.100Z,1003.8
2017-08-04T10:04:41.493Z,1003.9
2017-08-04T10:05:42.903Z,1003.9
2017-08-04T10:06:45.014Z,1003.9
2017-08-04T10:07:46.399Z,1003.9
2017-08-04T10:08:47.799Z,1003.8
2017-08-04T10:09:49.209Z,1003.8
2017-08-04T10:10:50.613Z,1003.8
2017-08-04T10:11:52.011Z,1003.9
2017-08-04T10:12:53.407Z,1003.8
2017-08-04T10:13:54.829Z,1003.9
2017-08-04T10:14:56.232Z,1003.9
2017-08-04T10:15:57.632Z,1003.9
2017-08-04T10:16:59.034Z,1003.8
2017-08-04T10:18:00.439Z,1003.8
2017-08-04T10:19:02.232Z,1003.7
2017-08-04T10:20:03.561Z,1003.5
2017-08-04T10:21:04.999Z,1003.7
2017-08-04T10:22:06.440Z,1003.8
2017-08-04T10:23:07.837Z,1003.8
2017-08-04T10:24:09.324Z,1003.9
2017-08-04T10:25:10.728Z,1003.8
2017-08-04T10:26:12.134Z,1003.7
2017-08-04T10:27:13.525Z,1003.7
2017-08-04T10:28:14.946Z,1003.7
2017-08-04T10:29:16.343Z,1003.6
2017-08-04T10:30:18.191Z,1003.7
2017-08-04T10:32:00.572Z,1003.7
2017-08-04T10:33:01.964Z,1003.6
2017-08-04T10:34:03.363Z,1003.8
2017-08-04T10:35:04.746Z,1003.8
2017-08-04T10:36:06.512Z,1003.7
2017-08-04T10:37:07.907Z,1003.7
2017-08-04T10:38:09.320Z,1003.7
2017-08-04T10:39:10.719Z,1003.9
2017-08-04T10:40:12.110Z,1003.9
2017-08-04T10:41:13.507Z,1003.8
2017-08-04T10:42:14.895Z,1003.8
2017-08-04T10:43:16.291Z,1003.7
2017-08-04T10:44:17.683Z,1003.8
2017-08-04T10:45:19.280Z,1003.8
2017-08-04T10:46:20.668Z,1003.8
2017-08-04T10:47:22.989Z,1003.6
2017-08-04T10:48:25.133Z,1003.7
2017-08-04T10:49:27.410Z,1003.6
2017-08-04T10:50:29.068Z,1003.6
2017-08-04T10:51:30.782Z,1003.9
2017-08-04T10:52:32.199Z,1003.7
2017-08-04T10:53:34.357Z,1003.7
2017-08-04T10:54:36.317Z,1003.8
2017-08-04T10:55:37.704Z,1003.8
2017-08-04T10:56:39.093Z,1003.8
2017-08-04T10:57:40.490Z,1003.8
2017-08-04T10:58:41.887Z,1003.8
2017-08-04T10:59:43.284Z,1003.8
2017-08-04T11:00:44.684Z,1003.8
2017-08-04T11:01:46.078Z,1003.9
2017-08-04T11:02:47.888Z,1004.0
2017-08-04T11:03:49.684Z,1003.9
2017-08-04T11:04:51.516Z,1003.9
2017-08-04T11:05:52.927Z,1003.7
2017-08-04T11:06:54.484Z,1003.8
2017-08-04T11:07:55.877Z,1003.8
2017-08-04T11:08:57.323Z,1003.7
2017-08-04T11:10:38.709Z,1003.7
2017-08-04T11:11:40.098Z,1003.7
2017-08-04T11:13:03.123Z,1003.8
2017-08-04T11:14:04.524Z,1003.8
2017-08-04T11:15:05.927Z,1003.7
2017-08-04T11:16:07.335Z,1003.6
2017-08-04T11:17:08.737Z,1003.7
2017-08-04T11:18:10.144Z,1003.7
2017-08-04T11:19:11.533Z,1003.7
2017-08-04T11:20:12.930Z,1003.7
2017-08-04T11:21:14.320Z,1003.6
2017-08-04T11:22:15.728Z,1003.6
2017-08-04T11:23:17.128Z,1003.7
2017-08-04T11:24:18.520Z,1003.8
2017-08-04T11:25:19.919Z,1004.0
2017-08-04T11:26:21.313Z,1004.0
2017-08-04T11:27:22.716Z,1004.0
2017-08-04T11:28:24.099Z,1004.0
2017-08-04T11:29:25.494Z,1004.0
2017-08-04T11:30:26.889Z,1004.1
2017-08-04T11:31:28.282Z,1004.0
2017-08-04T11:32:29.691Z,1003.9
2017-08-04T11:33:31.084Z,1004.0
2017-08-04T11:34:32.522Z,1004.0
2017-08-04T11:35:33.916Z,1004.0
2017-08-04T11:36:35.311Z,1004.0
2017-08-04T11:37:36.707Z,1004.1
2017-08-04T11:38:38.101Z,1004.1
2017-08-04T11:39:39.548Z,1003.9
2017-08-04T11:40:41.011Z,1004.0
2017-08-04T11:41:42.410Z,1004.1
2017-08-04T11:42:43.809Z,1004.1
2017-08-04T11:43:45.395Z,1004.0
2017-08-04T11:44:46.852Z,1003.9
2017-08-04T11:45:48.255Z,1003.8
2017-08-04T11:46:49.860Z,1003.8
2017-08-04T11:48:32.252Z,1003.9
2017-08-04T11:49:33.649Z,1004.0
2017-08-04T11:50:35.311Z,1003.7
2017-08-04T11:51:36.719Z,1003.9
2017-08-04T11:52:38.143Z,1003.9
2017-08-04T11:53:39.517Z,1003.9
2017-08-04T11:54:40.924Z,1004.0
2017-08-04T11:55:42.317Z,1004.0
2017-08-04T11:56:43.717Z,1003.8
2017-08-04T11:57:45.122Z,1003.8
2017-08-04T11:58:46.517Z,1003.9
2017-08-04T11:59:47.932Z,1003.8
2017-08-04T12:00:49.326Z,1003.9
2017-08-04T12:01:50.720Z,1003.9
2017-08-04T12:03:32.119Z,1003.7
2017-08-04T12:04:33.521Z,1003.7
2017-08-04T12:05:56.542Z,1003.7
2017-08-04T12:06:57.936Z,1003.8
2017-08-04T12:07:59.331Z,1003.8
2017-08-04T12:09:00.735Z,1003.7
2017-08-04T12:10:02.132Z,1003.7
2017-08-04T12:11:03.527Z,1003.7
2017-08-04T12:12:04.967Z,1003.6
2017-08-04T12:13:06.367Z,1003.7
2017-08-04T12:14:07.763Z,1003.7
2017-08-04T12:15:09.156Z,1003.6
2017-08-04T12:16:10.550Z,1003.7
2017-08-04T12:17:11.946Z,1003.8
2017-08-04T12:18:13.341Z,1003.9
2017-08-04T12:19:14.769Z,1003.9
2017-08-04T12:20:16.164Z,1003.9
2017-08-04T12:21:17.557Z,1004.0
2017-08-04T12:22:18.949Z,1003.9
2017-08-04T12:23:20.358Z,1003.8
2017-08-04T12:24:21.750Z,1004.1
2017-08-04T12:25:23.153Z,1004.0
2017-08-04T12:26:24.568Z,1004.2
2017-08-04T12:27:25.972Z,1003.9
2017-08-04T12:28:27.370Z,1003.8
2017-08-04T12:29:28.767Z,1003.8
2017-08-04T12:30:30.160Z,1003.8
2017-08-04T12:31:31.566Z,1003.7
2017-08-04T12:32:32.951Z,1003.8
2017-08-04T12:33:34.344Z,1003.9
2017-08-04T12:34:35.748Z,1003.7
2017-08-04T12:35:37.143Z,1003.9
2017-08-04T12:36:38.540Z,1003.9
2017-08-04T12:37:39.950Z,1003.9
2017-08-04T12:38:41.342Z,1004.2
2017-08-04T12:39:42.741Z,1004.0
2017-08-04T12:40:44.141Z,1004.0
2017-08-04T12:41:45.550Z,1004.0
2017-08-04T12:42:46.950Z,1004.1
2017-08-04T12:43:48.343Z,1004.1
2017-08-04T12:44:49.741Z,1004.3
2017-08-04T12:45:51.144Z,1004.2
2017-08-04T12:46:52.546Z,1004.1
2017-08-04T12:47:53.943Z,1004.0
2017-08-04T12:48:55.356Z,1004.2
2017-08-04T12:49:56.757Z,1004.1
2017-08-04T12:50:58.150Z,1004.0
2017-08-04T12:52:40.548Z,1004.0
2017-08-04T12:53:41.951Z,1004.0
2017-08-04T12:54:43.350Z,1004.1
2017-08-04T12:55:44.749Z,1004.1
2017-08-04T12:56:46.152Z,1004.1
2017-08-04T12:57:47.550Z,1003.8
2017-08-04T12:58:48.959Z,1003.9
2017-08-04T12:59:50.367Z,1003.9
2017-08-04T13:00:51.760Z,1004.0
2017-08-04T13:01:53.161Z,1003.8
2017-08-04T13:02:54.569Z,1003.6
2017-08-04T13:03:55.958Z,1003.9
2017-08-04T13:04:57.378Z,1003.8
2017-08-04T13:05:58.756Z,1003.8